Time;durP1;ratioP1;P1;durP2;ratioP2;P2;SDS_P1;SDS_P2;PMS_P1;PMS_P2;Temp;Humidity;BMP_temperature;BMP_pressure;BME280_temperature;BME280_humidity;BME280_pressure;Samples;Min_cycle;Max_cycle;Signal;HPM_P1;HPM_P2
2022/03/22 00:02:16;;;;;;;15.85;5.63;;;4.50;99.90;;;;;;10297702;28;20054;-87
2022/03/22 00:07:17;;;;;;;12.60;6.72;;;4.40;99.90;;;;;;10303960;28;20061;-87
2022/03/22 00:12:19;;;;;;;17.10;7.40;;;4.30;99.40;;;;;;10260960;28;20065;-87
2022/03/22 00:17:21;;;;;;;13.07;6.07;;;4.20;99.90;;;;;;10296026;28;20054;-87
2022/03/22 00:22:32;;;;;;;15.32;6.15;;;4.20;99.90;;;;;;10301861;28;20537;-87
2022/03/22 00:27:51;;;;;;;16.50;5.75;;;4.00;99.90;;;;;;10296798;28;20043;-88
2022/03/22 00:32:57;;;;;;;10.38;5.13;;;3.90;99.90;;;;;;10302817;28;20050;-87
2022/03/22 00:37:59;;;;;;;13.60;5.50;;;3.90;99.90;;;;;;10305453;28;20534;-88
2022/03/22 00:43:02;;;;;;;13.30;5.57;;;3.80;99.90;;;;;;10304543;28;20074;-87
2022/03/22 00:48:06;;;;;;;12.93;5.30;;;3.70;99.90;;;;;;10287226;28;20049;-87
2022/03/22 00:53:09;;;;;;;13.63;6.13;;;3.70;99.90;;;;;;10285264;28;20523;-88
2022/03/22 00:58:14;;;;;;;12.07;5.72;;;3.60;99.90;;;;;;10300437;28;20046;-88
2022/03/22 01:03:16;;;;;;;13.25;5.95;;;3.50;99.90;;;;;;10302548;28;20058;-88
2022/03/22 01:08:33;;;;;;;15.10;5.22;;;3.50;99.90;;;;;;10283081;28;20046;-88
2022/03/22 01:13:35;;;;;;;12.30;5.55;;;3.40;99.90;;;;;;10291001;28;20042;-88
2022/03/22 01:18:37;;;;;;;10.73;5.13;;;3.40;99.90;;;;;;10284520;28;20284;-87
2022/03/22 01:23:38;;;;;;;15.68;5.90;;;3.30;99.90;;;;;;10272636;28;20046;-87
2022/03/22 01:28:40;;;;;;;10.25;5.55;;;3.20;99.90;;;;;;10282161;28;20047;-87
2022/03/22 01:33:42;;;;;;;11.07;4.78;;;3.20;99.90;;;;;;10281941;28;20062;-87
2022/03/22 01:38:46;;;;;;;14.98;5.30;;;3.10;99.90;;;;;;10281808;28;20074;-87
2022/03/22 01:43:48;;;;;;;14.82;5.32;;;3.00;99.90;;;;;;10314472;28;20106;-87
2022/03/22 01:48:51;;;;;;;10.60;4.68;;;3.00;99.90;;;;;;10280596;28;20058;-87
2022/03/22 01:53:55;;;;;;;14.93;5.55;;;2.90;99.90;;;;;;10306626;28;20058;-87
2022/03/22 01:58:58;;;;;;;11.95;5.18;;;2.80;99.90;;;;;;10296573;28;20061;-87
2022/03/22 02:09:20;;;;;;;11.90;4.82;;;2.70;99.90;;;;;;10306515;28;20054;-88
2022/03/22 02:14:22;;;;;;;12.15;4.75;;;2.60;99.90;;;;;;10284271;28;20054;-88
2022/03/22 02:19:24;;;;;;;14.18;4.68;;;2.60;99.90;;;;;;10296113;28;20055;-88
2022/03/22 02:24:26;;;;;;;7.97;4.55;;;2.50;99.90;;;;;;10312794;28;20142;-88
2022/03/22 02:29:28;;;;;;;12.18;4.47;;;2.40;99.90;;;;;;10275625;28;20149;-88
2022/03/22 02:34:30;;;;;;;28.60;11.25;;;2.40;99.90;;;;;;10308512;28;20052;-88
2022/03/22 02:39:35;;;;;;;28.25;11.15;;;2.30;99.90;;;;;;10297915;28;20077;-88
2022/03/22 02:44:37;;;;;;;23.35;9.10;;;2.30;99.90;;;;;;10303432;28;20373;-88
2022/03/22 02:49:39;;;;;;;13.88;5.15;;;2.20;99.90;;;;;;10309273;28;20109;-88
2022/03/22 02:54:41;;;;;;;11.25;4.78;;;2.10;99.90;;;;;;10294928;28;20063;-89
2022/03/22 02:59:43;;;;;;;10.13;4.60;;;2.10;99.90;;;;;;10306562;28;20046;-88
2022/03/22 03:04:45;;;;;;;10.40;5.32;;;2.00;99.90;;;;;;10302690;28;20057;-89
2022/03/22 03:09:51;;;;;;;11.82;4.75;;;2.00;99.90;;;;;;10311064;28;20666;-88
2022/03/22 03:14:53;;;;;;;14.35;5.43;;;1.90;99.90;;;;;;10301962;28;20081;-89
2022/03/22 03:19:55;;;;;;;14.27;5.75;;;1.90;99.90;;;;;;10284929;28;20150;-89
2022/03/22 03:25:22;;;;;;;10.43;4.50;;;1.90;99.90;;;;;;10310613;28;20062;-89
2022/03/22 03:30:24;;;;;;;12.38;4.70;;;1.80;99.90;;;;;;10295967;28;20122;-89
2022/03/22 03:35:26;;;;;;;9.73;4.82;;;1.80;99.90;;;;;;10289362;28;20065;-89
2022/03/22 03:41:53;;;;;;;10.82;4.60;;;1.70;99.90;;;;;;10288748;28;20050;-89
2022/03/22 03:51:28;;;;;;;14.82;4.78;;;1.70;99.90;;;;;;10297937;28;20058;-87
2022/03/22 03:56:30;;;;;;;10.82;4.82;;;1.60;99.90;;;;;;10296183;28;20130;-87
2022/03/22 04:01:33;;;;;;;17.02;4.72;;;1.50;99.90;;;;;;10303901;28;20053;-87
2022/03/22 04:06:37;;;;;;;15.00;5.10;;;1.50;99.90;;;;;;10292915;28;20129;-87
2022/03/22 04:11:45;;;;;;;12.52;5.28;;;1.40;99.90;;;;;;10267654;28;20066;-87
2022/03/22 04:17:43;;;;;;;10.82;4.30;;;1.40;99.90;;;;;;10305321;28;20054;-87
2022/03/22 04:22:55;;;;;;;10.85;4.50;;;1.30;99.90;;;;;;10297718;28;20049;-88
2022/03/22 04:33:17;;;;;;;12.90;4.68;;;1.20;99.90;;;;;;10310819;28;20038;-86
2022/03/22 04:38:19;;;;;;;11.50;5.40;;;1.20;99.90;;;;;;10289659;28;20054;-88
2022/03/22 04:43:20;;;;;;;18.38;5.70;;;1.10;99.90;;;;;;10292108;28;20054;-89
2022/03/22 04:48:22;;;;;;;16.15;5.47;;;1.10;99.90;;;;;;10315259;28;20424;-88
2022/03/22 04:58:48;;;;;;;11.35;4.65;;;1.10;99.90;;;;;;10315643;28;20046;-89
2022/03/22 05:03:50;;;;;;;16.17;6.05;;;1.10;99.90;;;;;;10312297;28;20065;-89
2022/03/22 05:09:07;;;;;;;10.52;5.40;;;1.20;99.90;;;;;;10299182;28;20050;-89
2022/03/22 05:14:09;;;;;;;12.27;5.35;;;1.10;99.90;;;;;;10305385;28;20062;-88
2022/03/22 05:19:13;;;;;;;10.18;4.65;;;1.10;99.90;;;;;;10294370;28;20088;-89
2022/03/22 05:24:15;;;;;;;15.95;5.47;;;1.10;99.90;;;;;;10319692;28;20050;-89
2022/03/22 05:29:17;;;;;;;12.50;5.43;;;1.10;99.90;;;;;;10308426;28;20544;-89
2022/03/22 05:34:19;;;;;;;19.05;6.28;;;1.10;99.90;;;;;;10290386;28;20080;-89
2022/03/22 05:39:21;;;;;;;14.93;5.95;;;1.10;99.90;;;;;;10295904;28;20046;-88
2022/03/22 05:44:23;;;;;;;12.60;5.65;;;1.10;99.90;;;;;;10304991;28;20073;-89
2022/03/22 05:49:25;;;;;;;16.25;5.13;;;1.10;99.90;;;;;;10279244;28;20120;-89
2022/03/22 05:54:27;;;;;;;13.77;5.90;;;1.20;99.90;;;;;;10305467;28;20062;-89
2022/03/22 05:59:28;;;;;;;13.98;5.70;;;1.20;99.90;;;;;;10291282;28;20395;-88
2022/03/22 06:04:30;;;;;;;12.88;5.40;;;1.20;99.90;;;;;;10303902;28;20106;-89
2022/03/22 06:09:32;;;;;;;15.02;5.82;;;1.30;99.90;;;;;;10298909;28;20373;-88
2022/03/22 06:14:34;;;;;;;18.98;5.85;;;1.40;99.90;;;;;;10304681;28;20058;-88
2022/03/22 06:19:36;;;;;;;16.02;6.30;;;1.40;99.90;;;;;;10309308;28;20053;-92
2022/03/22 06:24:39;;;;;;;19.70;6.93;;;1.50;99.90;;;;;;10308627;28;20076;-90
2022/03/22 06:29:43;;;;;;;23.60;7.07;;;1.60;99.90;;;;;;10301935;28;20042;-90
2022/03/22 06:34:47;;;;;;;16.52;7.72;;;1.70;99.90;;;;;;10280873;28;20039;-90
2022/03/22 06:39:49;;;;;;;14.05;5.85;;;1.80;99.90;;;;;;10296977;28;20114;-89
2022/03/22 06:44:51;;;;;;;18.40;7.38;;;1.90;99.90;;;;;;10290469;28;20046;-89
2022/03/22 06:49:52;;;;;;;13.57;6.03;;;2.10;99.90;;;;;;10312249;28;20101;-89
2022/03/22 06:54:54;;;;;;;15.20;6.75;;;2.20;99.90;;;;;;10294256;28;20043;-89
2022/03/22 06:59:56;;;;;;;15.30;7.38;;;2.40;99.90;;;;;;10303093;28;20046;-88
2022/03/22 07:04:58;;;;;;;15.70;6.70;;;2.60;99.90;;;;;;10311390;28;20070;-88
2022/03/22 07:10:00;;;;;;;19.67;7.15;;;2.80;99.90;;;;;;10282879;28;20070;-89
2022/03/22 07:15:08;;;;;;;17.27;8.02;;;3.00;99.90;;;;;;10318471;28;20041;-91
2022/03/22 07:20:13;;;;;;;17.77;7.55;;;3.20;99.90;;;;;;10278059;28;20075;-88
2022/03/22 07:25:17;;;;;;;21.27;6.78;;;3.40;99.90;;;;;;10281976;28;20096;-91
2022/03/22 07:30:19;;;;;;;16.95;7.22;;;3.60;99.90;;;;;;10310915;28;20062;-89
2022/03/22 07:35:22;;;;;;;13.52;7.30;;;3.80;99.90;;;;;;10320366;28;20051;-90
2022/03/22 07:40:24;;;;;;;23.35;7.70;;;4.00;99.90;;;;;;10314585;28;20050;-91
2022/03/22 07:45:26;;;;;;;20.23;7.38;;;4.30;99.90;;;;;;10283936;28;20055;-91
2022/03/22 07:55:48;;;;;;;19.92;7.38;;;4.70;99.90;;;;;;10292574;28;20056;-90
2022/03/22 08:00:50;;;;;;;18.50;8.38;;;4.90;99.60;;;;;;10276005;28;20584;-91
2022/03/22 08:05:53;;;;;;;20.58;8.38;;;5.20;99.90;;;;;;10287417;28;20050;-91
2022/03/22 08:11:01;;;;;;;;;;;5.50;97.30;;;;;;10305489;28;20046;-91
2022/03/22 08:16:06;;;;;;;19.83;7.45;;;5.70;95.30;;;;;;10297108;28;20021;-91
2022/03/22 08:21:13;;;;;;;22.38;8.18;;;6.00;95.10;;;;;;10241316;28;20463;-91
2022/03/22 08:26:16;;;;;;;14.35;7.82;;;6.40;94.70;;;;;;10299681;28;20054;-91
2022/03/22 08:31:19;;;;;;;15.93;8.25;;;6.60;90.50;;;;;;10280436;28;20038;-91
2022/03/22 08:36:51;;;;;;;15.85;8.55;;;6.90;86.30;;;;;;10283756;28;20085;-90
2022/03/22 08:41:58;;;;;;;13.23;6.85;;;7.40;80.60;;;;;;10281622;28;20041;-90
2022/03/22 08:47:02;;;;;;;17.23;7.43;;;7.70;77.70;;;;;;10284296;28;20412;-92
2022/03/22 08:52:05;;;;;;;16.65;6.95;;;7.90;75.50;;;;;;10294396;28;20053;-92
2022/03/22 08:57:07;;;;;;;16.05;7.57;;;8.20;72.10;;;;;;10289470;28;20035;-91
2022/03/22 09:02:09;;;;;;;15.63;6.05;;;8.40;69.10;;;;;;10279104;28;20125;-91
2022/03/22 09:07:14;;;;;;;20.00;9.18;;;8.60;64.10;;;;;;10023534;28;20522;-92
2022/03/22 09:12:16;;;;;;;16.23;9.23;;;8.90;62.60;;;;;;9802004;28;20052;-92
2022/03/22 09:17:35;;;;;;;13.55;5.97;;;9.10;62.80;;;;;;10194518;28;20055;-92
2022/03/22 09:22:37;;;;;;;14.13;5.65;;;9.30;61.60;;;;;;10287259;28;20043;-91
2022/03/22 09:27:43;;;;;;;13.43;6.20;;;9.50;59.70;;;;;;10285782;28;20109;-92
2022/03/22 09:32:46;;;;;;;11.18;5.75;;;9.70;60.60;;;;;;10284843;28;20039;-91
2022/03/22 09:37:48;;;;;;;11.50;6.05;;;9.90;58.60;;;;;;10267225;28;20077;-93
2022/03/22 09:42:51;;;;;;;14.32;4.88;;;10.00;57.90;;;;;;10279865;28;20047;-92
2022/03/22 09:47:58;;;;;;;14.45;5.18;;;10.20;53.40;;;;;;10282664;28;20133;-92
2022/03/22 09:53:00;;;;;;;12.00;5.25;;;10.40;50.90;;;;;;10284634;28;20536;-91
2022/03/22 09:58:02;;;;;;;9.57;5.15;;;10.70;51.40;;;;;;10290697;28;20066;-92
2022/03/22 10:03:04;;;;;;;10.85;5.05;;;10.80;50.60;;;;;;10273201;28;20133;-92
2022/03/22 10:08:08;;;;;;;13.05;4.93;;;11.10;51.60;;;;;;10287419;28;20085;-92
2022/03/22 10:13:14;;;;;;;11.15;5.40;;;;;;;;;;10214387;28;20063;-93
2022/03/22 10:18:23;;;;;;;11.27;6.18;;;11.90;48.40;;;;;;10269499;28;20053;-92
2022/03/22 10:23:30;;;;;;;11.38;5.65;;;12.60;50.00;;;;;;10287950;28;20050;-92
2022/03/22 10:28:34;;;;;;;11.10;5.57;;;13.60;45.50;;;;;;10254039;28;20047;-93
2022/03/22 10:34:11;;;;;;;9.47;5.90;;;15.10;44.00;;;;;;10286588;28;20108;-93
2022/03/22 10:39:28;;;;;;;10.00;6.25;;;16.50;42.70;;;;;;10281269;28;20133;-93
2022/03/22 10:44:38;;;;;;;11.38;6.38;;;17.90;39.60;;;;;;10242440;28;20046;-92
2022/03/22 10:49:43;;;;;;;9.50;6.45;;;18.90;36.80;;;;;;10250709;28;20030;-93
2022/03/22 10:54:52;;;;;;;9.63;7.07;;;20.00;37.00;;;;;;10068103;28;20065;-93
2022/03/22 11:00:08;;;;;;;8.10;6.15;;;20.00;35.60;;;;;;10266251;28;20536;-93
2022/03/22 11:05:10;;;;;;;9.35;5.47;;;20.90;34.10;;;;;;10264385;28;27203;-93
2022/03/22 11:10:14;;;;;;;8.55;6.07;;;21.50;32.70;;;;;;10214786;28;20059;-93
2022/03/22 11:15:17;;;;;;;10.30;5.45;;;22.00;31.90;;;;;;10208960;28;20043;-93
2022/03/22 11:20:58;;;;;;;8.50;4.90;;;22.60;31.30;;;;;;10099373;28;20131;-93
2022/03/22 11:26:23;;;;;;;7.47;5.25;;;;;;;;;;10258912;28;20501;-93
2022/03/22 11:31:26;;;;;;;;;;;24.60;29.10;;;;;;10263653;28;20098;-94
2022/03/22 11:36:49;;;;;;;6.28;5.10;;;25.40;30.20;;;;;;10266127;28;19992;-93
2022/03/22 11:47:43;;;;;;;8.20;4.38;;;26.20;28.50;;;;;;10290033;28;20046;-92
2022/03/22 11:53:01;;;;;;;4.55;3.90;;;26.80;27.80;;;;;;10306328;28;20085;-92
2022/03/22 11:58:09;;;;;;;6.20;4.30;;;26.80;26.50;;;;;;10311094;28;20049;-92
2022/03/22 12:03:15;;;;;;;5.57;3.83;;;25.80;26.50;;;;;;10301034;28;20057;-92
2022/03/22 12:08:17;;;;;;;4.55;4.00;;;27.00;27.80;;;;;;10286500;28;20555;-92
2022/03/22 12:13:21;;;;;;;7.80;4.72;;;26.70;27.10;;;;;;10271488;28;20135;-92
2022/03/22 12:18:33;;;;;;;7.32;4.47;;;26.60;26.70;;;;;;10216119;28;20084;-91
2022/03/22 12:23:35;;;;;;;9.82;5.35;;;27.20;26.20;;;;;;10287833;28;20050;-92
2022/03/22 12:28:51;;;;;;;6.55;4.78;;;27.90;27.70;;;;;;10264625;28;20070;-92
2022/03/22 12:33:57;;;;;;;5.53;4.32;;;27.20;25.90;;;;;;10303425;28;20053;-92
2022/03/22 12:38:59;;;;;;;9.75;5.45;;;27.80;25.80;;;;;;10287410;28;20722;-92
2022/03/22 12:44:06;;;;;;;6.82;4.38;;;28.70;25.90;;;;;;10295094;28;20174;-92
2022/03/22 12:49:09;;;;;;;5.53;4.25;;;29.60;27.70;;;;;;10317491;28;20058;-92
2022/03/22 12:54:14;;;;;;;7.47;3.42;;;29.30;26.60;;;;;;10296514;28;20438;-92
2022/03/22 12:59:19;;;;;;;;;;;29.10;25.90;;;;;;10275168;28;20545;-91
2022/03/22 13:15:52;;;;;;;5.55;2.95;;;30.10;23.80;;;;;;10285975;28;20053;-91
2022/03/22 13:21:00;;;;;;;4.30;2.58;;;28.40;25.20;;;;;;10276835;28;20054;-91
2022/03/22 13:26:04;;;;;;;3.90;2.75;;;29.50;24.20;;;;;;10282633;28;20042;-91
2022/03/22 13:31:05;;;;;;;4.32;3.22;;;30.00;24.40;;;;;;10302696;28;20050;-91
2022/03/22 13:36:07;;;;;;;5.38;3.10;;;31.20;24.20;;;;;;10271501;28;20051;-91
2022/03/22 13:41:11;;;;;;;4.82;2.72;;;30.80;23.60;;;;;;10292745;28;20054;-92
2022/03/22 13:46:13;;;;;;;4.15;3.00;;;31.10;24.10;;;;;;10292715;28;20073;-91
2022/03/22 13:51:19;;;;;;;4.72;2.90;;;31.70;24.30;;;;;;10299378;28;20485;-91
2022/03/22 13:56:32;;;;;;;4.30;2.72;;;30.90;24.10;;;;;;10303680;28;20058;-91
2022/03/22 14:01:34;;;;;;;3.33;2.50;;;30.50;22.90;;;;;;10290751;28;20514;-91
2022/03/22 14:06:37;;;;;;;3.97;2.97;;;30.70;23.60;;;;;;10311498;28;20034;-92
2022/03/22 14:11:39;;;;;;;2.78;2.50;;;30.40;23.90;;;;;;10294588;28;20055;-92
2022/03/22 14:16:41;;;;;;;3.72;2.58;;;30.10;23.90;;;;;;10296720;28;20058;-92
2022/03/22 14:21:43;;;;;;;8.45;2.78;;;29.10;24.60;;;;;;10311056;28;20062;-91
2022/03/22 14:26:45;;;;;;;3.47;3.08;;;29.00;24.70;;;;;;10313353;28;20054;-91
2022/03/22 14:31:49;;;;;;;4.07;2.50;;;28.50;24.90;;;;;;10292960;28;20089;-92
2022/03/22 14:37:16;;;;;;;7.57;2.50;;;28.80;24.70;;;;;;10308776;28;20046;-91
2022/03/22 14:42:19;;;;;;;7.53;3.40;;;28.30;24.70;;;;;;10276546;28;20054;-91
2022/03/22 14:47:21;;;;;;;3.67;2.28;;;28.60;24.60;;;;;;10260966;28;20058;-91
2022/03/22 15:03:47;;;;;;;7.35;2.80;;;26.90;25.70;;;;;;10295616;28;20058;-91
2022/03/22 15:08:52;;;;;;;5.10;3.22;;;25.60;25.90;;;;;;10272238;28;20125;-91
2022/03/22 15:13:56;;;;;;;5.53;2.83;;;25.80;25.90;;;;;;10251940;28;20054;-90
2022/03/22 15:18:58;;;;;;;3.95;2.72;;;25.50;26.10;;;;;;10305425;28;20058;-91
2022/03/22 15:24:13;;;;;;;5.57;2.20;;;24.60;27.10;;;;;;10287189;28;20106;-90
2022/03/22 15:29:15;;;;;;;4.03;2.50;;;24.70;26.30;;;;;;10302092;28;20043;-88
2022/03/22 15:34:17;;;;;;;7.18;2.70;;;24.30;27.10;;;;;;10300674;28;20042;-89
2022/03/22 15:39:19;;;;;;;4.18;2.65;;;23.90;27.60;;;;;;10292367;28;20053;-89
2022/03/22 15:44:21;;;;;;;7.53;3.05;;;23.70;27.90;;;;;;10314035;28;20049;-92
2022/03/22 15:49:22;;;;;;;7.53;3.10;;;23.40;27.90;;;;;;10307010;28;20066;-92
2022/03/22 15:54:24;;;;;;;6.75;2.80;;;23.00;27.50;;;;;;10305246;28;20046;-92
2022/03/22 15:59:28;;;;;;;6.53;2.83;;;22.70;28.50;;;;;;10287768;28;20380;-91
2022/03/22 16:04:29;;;;;;;6.38;2.95;;;22.40;28.30;;;;;;10290510;28;20472;-92
2022/03/22 16:09:31;;;;;;;3.72;2.40;;;22.10;28.40;;;;;;10283841;28;20051;-91
2022/03/22 16:14:33;;;;;;;7.55;2.42;;;22.00;29.30;;;;;;10309588;28;20161;-87
2022/03/22 16:19:35;;;;;;;5.28;2.97;;;21.60;28.70;;;;;;10306757;28;20444;-89
2022/03/22 16:24:38;;;;;;;4.47;1.83;;;21.40;29.30;;;;;;10300388;28;20053;-89
2022/03/22 16:29:41;;;;;;;5.65;2.35;;;21.10;29.40;;;;;;10312638;28;20054;-90
2022/03/22 16:40:29;;;;;;;9.85;2.15;;;20.80;30.10;;;;;;10305894;28;20051;-89
2022/03/22 16:45:38;;;;;;;5.57;2.45;;;20.40;31.50;;;;;;10304176;28;20043;-92
2022/03/22 16:50:49;;;;;;;7.38;3.13;;;20.30;32.40;;;;;;10297394;28;20054;-92
2022/03/22 16:55:53;;;;;;;5.90;1.95;;;20.10;32.50;;;;;;10302096;28;20081;-92
2022/03/22 17:00:56;;;;;;;4.43;2.17;;;19.80;33.00;;;;;;10319001;28;20797;-90
2022/03/22 17:06:00;;;;;;;5.68;2.67;;;19.20;33.40;;;;;;10318426;28;20116;-92
2022/03/22 17:11:02;;;;;;;6.53;2.78;;;18.90;35.00;;;;;;10301890;28;20081;-93
2022/03/22 17:16:05;;;;;;;4.65;2.05;;;18.40;35.30;;;;;;10277919;28;20774;-92
2022/03/22 17:21:09;;;;;;;9.45;3.33;;;18.10;36.60;;;;;;10284068;28;20054;-92
2022/03/22 17:26:17;;;;;;;11.90;3.17;;;17.70;37.10;;;;;;10286592;28;20994;-92
2022/03/22 17:31:21;;;;;;;11.63;3.20;;;17.30;39.30;;;;;;10297426;28;20053;-92
2022/03/22 17:36:25;;;;;;;19.92;4.68;;;16.90;41.00;;;;;;10300281;28;20500;-91
2022/03/22 17:41:30;;;;;;;9.35;2.38;;;16.50;41.60;;;;;;10313261;28;20455;-92
2022/03/22 17:46:32;;;;;;;5.43;2.45;;;16.10;44.40;;;;;;10310773;28;20088;-92
2022/03/22 17:51:34;;;;;;;5.93;1.90;;;15.70;44.90;;;;;;10309119;28;20078;-92
2022/03/22 17:56:36;;;;;;;27.77;2.70;;;15.30;45.20;;;;;;10286070;28;20066;-94
2022/03/22 18:01:40;;;;;;;10.13;3.00;;;15.00;46.60;;;;;;10336567;28;20057;-93
2022/03/22 18:06:42;;;;;;;10.23;4.55;;;14.60;49.30;;;;;;10338118;28;20064;-93
2022/03/22 18:11:46;;;;;;;7.18;4.10;;;14.20;51.30;;;;;;10273172;28;20054;-92
2022/03/22 18:16:57;;;;;;;11.45;2.88;;;13.90;52.50;;;;;;10149871;28;20089;-94
2022/03/22 18:28:52;;;;;;;17.05;4.07;;;13.10;53.30;;;;;;10321407;28;20510;-92
2022/03/22 18:34:00;;;;;;;12.43;4.88;;;12.70;55.00;;;;;;10084306;28;20573;-94
2022/03/22 18:39:15;;;;;;;11.00;4.50;;;12.50;55.90;;;;;;10180854;28;20051;-94
2022/03/22 18:44:33;;;;;;;9.63;4.65;;;12.20;57.80;;;;;;10145350;28;20153;-93
2022/03/22 18:49:40;;;;;;;9.75;5.22;;;11.80;60.30;;;;;;10184551;28;20047;-92
2022/03/22 19:01:04;;;;;;;15.45;4.22;;;11.30;61.40;;;;;;10212290;28;20111;-93
2022/03/22 19:07:08;;;;;;;8.45;2.78;;;11.00;60.60;;;;;;9994415;28;20435;-94
2022/03/22 19:13:08;;;;;;;9.25;3.50;;;10.80;59.90;;;;;;9886411;28;20057;-93
2022/03/22 19:19:17;;;;;;;14.30;4.50;;;10.60;61.10;;;;;;10014326;28;20067;-93
2022/03/22 19:24:23;;;;;;;10.23;4.43;;;10.30;63.80;;;;;;10127550;28;20632;-94
2022/03/22 19:30:07;;;;;;;13.10;4.65;;;10.10;64.90;;;;;;9944592;28;20049;-93
2022/03/22 19:35:41;;;;;;;14.60;4.75;;;9.90;66.50;;;;;;10472959;28;20356;-60
2022/03/22 19:40:44;;;;;;;14.32;5.00;;;9.60;67.00;;;;;;10481824;28;20093;-60
2022/03/22 19:45:46;;;;;;;27.48;6.18;;;9.40;67.60;;;;;;10479616;28;20452;-60
2022/03/22 19:50:48;;;;;;;9.45;4.68;;;9.30;67.30;;;;;;10484304;28;20055;-59
2022/03/22 19:55:49;;;;;;;8.68;4.13;;;9.10;67.60;;;;;;10473864;28;20064;-59
2022/03/22 20:00:51;;;;;;;7.97;3.47;;;8.90;66.90;;;;;;10483706;28;20048;-59
2022/03/22 20:05:53;;;;;;;28.02;12.00;;;8.80;68.40;;;;;;10476128;28;20037;-59
2022/03/22 20:10:56;;;;;;;17.70;8.20;;;8.60;70.00;;;;;;10482532;28;20040;-59
2022/03/22 20:15:58;;;;;;;10.27;4.18;;;8.50;69.90;;;;;;10477222;28;20056;-60
2022/03/22 20:21:00;;;;;;;12.20;4.05;;;8.40;68.70;;;;;;10480424;28;20388;-59
2022/03/22 20:26:03;;;;;;;16.92;4.50;;;8.30;69.20;;;;;;10478704;28;20231;-59
2022/03/22 20:31:05;;;;;;;11.43;3.28;;;8.10;70.40;;;;;;10475487;28;20053;-59
2022/03/22 20:36:07;;;;;;;9.15;3.63;;;8.00;70.80;;;;;;10483045;28;20098;-59
2022/03/22 20:41:08;;;;;;;21.13;5.25;;;7.90;71.80;;;;;;10470893;28;20146;-59
2022/03/22 20:46:10;;;;;;;9.52;3.60;;;7.70;72.10;;;;;;10449204;28;20407;-60
2022/03/22 20:51:12;;;;;;;6.60;2.90;;;7.60;71.70;;;;;;10444055;28;20076;-59
2022/03/22 21:01:36;;;;;;;7.72;4.07;;;7.30;71.50;;;;;;10445388;28;20041;-60
2022/03/22 21:06:38;;;;;;;9.23;3.25;;;7.20;70.40;;;;;;10445862;28;28786;-59
2022/03/22 21:11:41;;;;;;;7.40;3.42;;;7.20;71.00;;;;;;10445216;28;20072;-59
2022/03/22 21:16:42;;;;;;;10.30;3.30;;;7.00;71.30;;;;;;10448278;28;20130;-60
2022/03/22 21:21:44;;;;;;;9.15;4.43;;;6.90;73.10;;;;;;10441646;28;20292;-60
2022/03/22 21:26:46;;;;;;;7.63;3.80;;;6.80;74.50;;;;;;10440459;28;20048;-59
2022/03/22 21:31:48;;;;;;;11.95;3.70;;;6.70;72.70;;;;;;10454313;28;20048;-60
2022/03/22 21:36:51;;;;;;;8.43;3.63;;;6.60;72.40;;;;;;10442769;28;20512;-60
2022/03/22 21:41:52;;;;;;;10.73;3.75;;;6.60;73.20;;;;;;10431891;28;20099;-59
2022/03/22 21:46:54;;;;;;;9.30;3.95;;;6.50;75.00;;;;;;10444101;28;20588;-59
2022/03/22 21:51:58;;;;;;;8.07;3.60;;;6.30;76.00;;;;;;10443321;28;20056;-59
2022/03/22 21:57:00;;;;;;;12.02;4.03;;;6.20;76.70;;;;;;10441786;28;20441;-59
2022/03/22 22:02:04;;;;;;;16.73;4.40;;;6.10;78.10;;;;;;10441551;28;20087;-58
2022/03/22 22:07:06;;;;;;;9.50;3.88;;;6.00;78.50;;;;;;10450069;28;20055;-59
2022/03/22 22:12:08;;;;;;;7.35;3.15;;;5.90;79.40;;;;;;10438675;28;20052;-60
2022/03/22 22:17:13;;;;;;;9.13;3.50;;;5.80;80.10;;;;;;10439155;28;20495;-59
2022/03/22 22:22:15;;;;;;;5.82;3.25;;;5.70;87.40;;;;;;10440474;28;20103;-60
2022/03/22 22:27:16;;;;;;;11.05;3.92;;;5.50;80.70;;;;;;10444946;28;20052;-58
2022/03/22 22:37:38;;;;;;;9.15;3.05;;;5.30;83.50;;;;;;10438226;28;20049;-59
2022/03/22 22:42:40;;;;;;;9.48;3.28;;;5.20;81.90;;;;;;10443458;28;20477;-60
2022/03/22 22:47:42;;;;;;;5.88;2.83;;;5.30;96.70;;;;;;10442966;28;20049;-59
2022/03/22 22:52:44;;;;;;;6.72;3.08;;;5.20;96.60;;;;;;10442467;28;20692;-58
2022/03/22 22:57:47;;;;;;;5.28;2.72;;;5.10;95.70;;;;;;10439269;28;20044;-60
2022/03/22 23:02:48;;;;;;;8.98;3.63;;;4.90;92.50;;;;;;10445806;28;20044;-61
2022/03/22 23:13:11;;;;;;;6.78;2.75;;;4.70;88.60;;;;;;10435085;28;20041;-58
2022/03/22 23:18:12;;;;;;;5.65;3.03;;;4.70;89.70;;;;;;10440194;28;20072;-60
2022/03/22 23:23:15;;;;;;;8.05;3.08;;;4.60;89.30;;;;;;10442107;28;20077;-60
2022/03/22 23:28:16;;;;;;;7.50;3.30;;;4.70;92.10;;;;;;10443999;28;20048;-60
2022/03/22 23:33:18;;;;;;;5.88;3.10;;;4.40;91.40;;;;;;10439340;28;20630;-60
2022/03/22 23:38:20;;;;;;;7.70;2.85;;;4.30;90.70;;;;;;10444233;28;20064;-60
2022/03/22 23:43:22;;;;;;;9.52;3.10;;;4.30;90.30;;;;;;10439330;28;20465;-60
2022/03/22 23:48:24;;;;;;;7.78;3.35;;;4.20;91.10;;;;;;10436436;28;20049;-59
2022/03/22 23:53:26;;;;;;;8.43;3.50;;;4.10;92.20;;;;;;10435553;28;20137;-60
2022/03/22 23:58:27;;;;;;;7.88;2.95;;;4.00;91.70;;;;;;10442148;28;20132;-60
